^^

..:: Storico WU ::..




Lo storico viene creato da WUnderground con i dati che la stazione Meteomincio invia al loro server. L' aggiornamento viene fatto ogni 5 minuti circa, tuttavia possono esserci intervalli pi¨ ampi a causa di errori, interruzioni di servizio o problemi nell' invio tramite FTP.


Storico stazione MeteoMincio
Giorno Sommario per Settembre 21, 2022 Unità:  Inglese    Metrico   Entrambi
Giorno Settimana Mese Anno
  Max: Min: Media:
Temperatura: 70.7 °F 54.1 °F 60.8 °F
Dew Point: 54.3 °F 46 °F 50.5 °F
Umidità: 86% 44.3% 71%
Velocità vento: 13.4mph 0.8mph 5.9mph
Raffica: 23mph - -
Direzione- - East
Pressione: 30.2 in 30.1 in -
Precipitazioni: 0 in    
 
 
Tabulato Dati per Settembre 21, 2022
Ora Temperatura Dew Point Pressione Direzione Velocità vento Raffica Umidità Intensità pioggia (oraria) Info solare Situazione
00:04 58.3 °F 53.6 °F 30.1 in NE 2.4 mph 4 mph 84.5% 0 in 0 W/m2
00:09 58.1 °F 53.6 °F 30.1 in NE 3 mph 4 mph 84.8% 0 in 0 W/m2
00:14 58.1 °F 53.6 °F 30.1 in ENE 2.1 mph 4 mph 85% 0 in 0 W/m2
00:19 57.7 °F 53.2 °F 30.1 in ENE 2.1 mph 5 mph 85% 0 in 0 W/m2
00:24 57.7 °F 53.2 °F 30.1 in ENE 3.2 mph 5 mph 85.2% 0 in 0 W/m2
00:29 57.7 °F 53.2 °F 30.1 in ENE 2.8 mph 5 mph 85% 0 in 0 W/m2
00:34 57.9 °F 53.4 °F 30.1 in ENE 1.9 mph 5 mph 85% 0 in 0 W/m2
00:39 57.9 °F 53.4 °F 30.1 in ENE 3.4 mph 5 mph 84.9% 0 in 0 W/m2
00:44 57.7 °F 53.1 °F 30.1 in East 1.9 mph 5 mph 84.1% 0 in 0 W/m2
00:49 57.6 °F 52.9 °F 30.1 in ENE 2.8 mph 5 mph 84.5% 0 in 0 W/m2
00:54 57.4 °F 52.9 °F 30.1 in ENE 3.3 mph 5 mph 85% 0 in 0 W/m2
00:59 57.4 °F 52.7 °F 30.1 in ENE 2.5 mph 5 mph 84.2% 0 in 0 W/m2
01:04 57.6 °F 52.7 °F 30.1 in ENE 4.2 mph 8.1 mph 84% 0 in 0 W/m2
01:09 57.6 °F 52.5 °F 30.1 in East 3.1 mph 8 mph 83.2% 0 in 0 W/m2
01:14 57.4 °F 52.3 °F 30.1 in East 1.9 mph 5 mph 83.1% 0 in 0 W/m2
01:19 57 °F 52.2 °F 30.1 in ENE 2.1 mph 5 mph 83.8% 0 in 0 W/m2
01:24 56.8 °F 52.2 °F 30.1 in East 2.4 mph 5 mph 84% 0 in 0 W/m2
01:29 56.8 °F 52 °F 30.1 in East 2.5 mph 5 mph 84% 0 in 0 W/m2
01:34 56.8 °F 52.2 °F 30.1 in ENE 2.5 mph 5 mph 84% 0 in 0 W/m2
01:39 56.8 °F 52.2 °F 30.1 in ENE 2.4 mph 5 mph 84% 0 in 0 W/m2
01:44 56.8 °F 52.2 °F 30.1 in ENE 2.9 mph 5 mph 84% 0 in 0 W/m2
01:49 57 °F 52 °F 30.1 in ENE 2.7 mph 5 mph 83.2% 0 in 0 W/m2
01:54 57 °F 52 °F 30.1 in ENE 2.3 mph 5 mph 83% 0 in 0 W/m2
01:59 57 °F 52 °F 30.1 in NE 2.8 mph 4 mph 83% 0 in 0 W/m2
02:04 57 °F 52 °F 30.1 in NE 2.1 mph 4 mph 83% 0 in 0 W/m2
02:09 57 °F 52 °F 30.1 in NE 2.8 mph 4 mph 83.5% 0 in 0 W/m2
02:14 56.8 °F 52.2 °F 30.1 in NE 2.8 mph 4 mph 84% 0 in 0 W/m2
02:19 56.8 °F 52 °F 30.1 in NE 3.1 mph 4 mph 84% 0 in 0 W/m2
02:24 56.8 °F 52 °F 30.1 in NE 2.8 mph 4 mph 84% 0 in 0 W/m2
02:29 56.8 °F 52.2 °F 30.1 in NE 3.8 mph 7 mph 84.4% 0 in 0 W/m2
02:34 57 °F 52.3 °F 30.1 in NE 3 mph 7 mph 84% 0 in 0 W/m2
02:39 57 °F 52.2 °F 30.1 in ENE 2.2 mph 5 mph 84% 0 in 0 W/m2
02:44 56.8 °F 52.2 °F 30.1 in ENE 3.5 mph 7 mph 84.4% 0 in 0 W/m2
02:49 57 °F 52.2 °F 30.1 in ENE 2.5 mph 4.6 mph 84% 0 in 0 W/m2
02:54 56.7 °F 52.2 °F 30.1 in ENE 2.2 mph 4 mph 84.6% 0 in 0 W/m2
02:59 56.5 °F 52 °F 30.1 in ENE 2.7 mph 5 mph 85% 0 in 0 W/m2
03:04 56.5 °F 52 °F 30.1 in ENE 2.8 mph 5 mph 85.3% 0 in 0 W/m2
03:09 56.3 °F 52.2 °F 30.1 in ENE 2.7 mph 5 mph 85.8% 0 in 0 W/m2
03:14 56.3 °F 52.2 °F 30.1 in ENE 3 mph 6 mph 86% 0 in 0 W/m2
03:19 56.3 °F 52.2 °F 30.1 in ENE 2.8 mph 6 mph 86% 0 in 0 W/m2
03:24 56.3 °F 52.2 °F 30.1 in ENE 3.2 mph 5 mph 86% 0 in 0 W/m2
03:29 56.1 °F 52.2 °F 30.1 in ENE 3.7 mph 5 mph 86% 0 in 0 W/m2
03:34 56.1 °F 52.2 °F 30.1 in ENE 3.3 mph 5 mph 86% 0 in 0 W/m2
03:39 56.1 °F 52 °F 30.1 in ENE 3.1 mph 5 mph 86% 0 in 0 W/m2
03:44 56.3 °F 52.2 °F 30.1 in ENE 4.2 mph 7 mph 86% 0 in 0 W/m2
03:49 56.3 °F 52.2 °F 30.1 in ENE 4.3 mph 8.1 mph 86% 0 in 0 W/m2
03:54 56.5 °F 52.3 °F 30.1 in ENE 5 mph 8.1 mph 86% 0 in 0 W/m2
03:59 56.7 °F 52.5 °F 30.1 in ENE 5.8 mph 10.4 mph 86% 0 in 0 W/m2
04:04 56.8 °F 52.7 °F 30.1 in ENE 6.9 mph 13 mph 86% 0 in 0 W/m2
04:09 57.2 °F 53.1 °F 30.1 in ENE 9.6 mph 17.3 mph 85.9% 0 in 0 W/m2
04:14 57.9 °F 53.4 °F 30.1 in ENE 9.4 mph 19.6 mph 85% 0 in 0 W/m2
04:19 58.5 °F 54 °F 30.1 in ENE 12.9 mph 22 mph 85% 0 in 0 W/m2
04:24 58.8 °F 54.3 °F 30.1 in ENE 11.3 mph 22 mph 85% 0 in 0 W/m2
04:29 59 °F 54.3 °F 30.1 in ENE 12.6 mph 19.6 mph 84.2% 0 in 0 W/m2
04:34 59.2 °F 54.3 °F 30.1 in ENE 10.1 mph 20 mph 84% 0 in 0 W/m2
04:39 59 °F 54.1 °F 30.1 in ENE 12.8 mph 21 mph 83.6% 0 in 0 W/m2
04:44 59 °F 53.4 °F 30.1 in ENE 11.6 mph 21 mph 81.9% 0 in 0 W/m2
04:49 58.8 °F 52.9 °F 30.1 in ENE 11.7 mph 20 mph 80.8% 0 in 0 W/m2
04:54 58.6 °F 52.7 °F 30.1 in ENE 10.7 mph 17.3 mph 80.7% 0 in 0 W/m2
04:59 58.3 °F 52.3 °F 30.1 in ENE 11.7 mph 17.3 mph 81% 0 in 0 W/m2
05:04 57.9 °F 52 °F 30.1 in ENE 9.9 mph 17.3 mph 81% 0 in 0 W/m2
05:09 57.6 °F 52 °F 30.1 in ENE 9.9 mph 16 mph 81.4% 0 in 0 W/m2
05:14 57.4 °F 52 °F 30.1 in ENE 10.6 mph 19.6 mph 82% 0 in 0 W/m2
05:19 57.4 °F 52 °F 30.1 in ENE 11.2 mph 22 mph 82% 0 in 0 W/m2
05:24 57.2 °F 51.8 °F 30.1 in ENE 11.7 mph 22 mph 82% 0 in 0 W/m2
05:29 57 °F 52 °F 30.1 in ENE 9.8 mph 20 mph 82.9% 0 in 0 W/m2
05:34 56.8 °F 51.8 °F 30.1 in ENE 10.7 mph 20 mph 83% 0 in 0 W/m2
05:39 56.7 °F 51.6 °F 30.1 in ENE 9.4 mph 17 mph 83% 0 in 0 W/m2
05:44 56.7 °F 51.6 °F 30.1 in ENE 9.8 mph 17.3 mph 83.5% 0 in 0 W/m2
05:49 56.5 °F 51.6 °F 30.1 in ENE 9.6 mph 18.4 mph 84% 0 in 0 W/m2
05:54 56.5 °F 51.8 °F 30.1 in ENE 9.9 mph 18 mph 84% 0 in 0 W/m2
05:59 56.7 °F 51.6 °F 30.1 in ENE 10.3 mph 18.4 mph 83.2% 0 in 0 W/m2
06:04 56.7 °F 51.6 °F 30.1 in ENE 11.2 mph 18.4 mph 83% 0 in 0 W/m2
06:09 56.7 °F 51.6 °F 30.1 in ENE 10.8 mph 18.4 mph 83% 0 in 0 W/m2
06:14 56.8 °F 51.6 °F 30.1 in ENE 10.6 mph 19.6 mph 83% 0 in 0 W/m2
06:19 56.8 °F 51.6 °F 30.1 in ENE 11.9 mph 20 mph 83% 0 in 0 W/m2
06:24 56.8 °F 51.6 °F 30.1 in ENE 9.5 mph 20 mph 83% 0 in 0 W/m2
06:29 56.7 °F 51.6 °F 30.1 in ENE 9.5 mph 15 mph 83% 0 in 0 W/m2
06:34 56.7 °F 51.4 °F 30.1 in ENE 8.8 mph 15 mph 83% 0 in 0 W/m2
06:39 56.5 °F 51.4 °F 30.1 in ENE 10.3 mph 17.3 mph 83% 0 in 0 W/m2
06:44 56.5 °F 51.4 °F 30.1 in ENE 9.5 mph 17 mph 83% 0 in 0 W/m2
06:49 56.3 °F 51.3 °F 30.1 in ENE 8.3 mph 16 mph 83% 0 in 0 W/m2
06:54 56.3 °F 51.3 °F 30.1 in ENE 8.8 mph 15 mph 83% 0 in 0 W/m2
06:59 56.3 °F 51.3 °F 30.1 in ENE 9.3 mph 15 mph 83% 0 in 0 W/m2
07:04 56.3 °F 51.3 °F 30.1 in ENE 9.4 mph 15 mph 83% 0 in 0 W/m2
07:09 56.5 °F 51.3 °F 30.1 in ENE 8.6 mph 14 mph 83% 0 in 0 W/m2
07:14 56.5 °F 51.3 °F 30.1 in ENE 9.6 mph 15 mph 83% 0 in 0 W/m2
07:19 56.5 °F 51.4 °F 30.1 in ENE 8.7 mph 15 mph 83% 0 in 7 W/m2
07:24 56.5 °F 51.4 °F 30.1 in ENE 9 mph 16.1 mph 83% 0 in 12 W/m2
07:29 56.7 °F 51.4 °F 30.1 in ENE 7.4 mph 16 mph 82.6% 0 in 18 W/m2
07:34 56.7 °F 51.3 °F 30.1 in ENE 7.6 mph 13 mph 82% 0 in 23 W/m2
07:39 56.8 °F 51.4 °F 30.1 in ENE 7 mph 13 mph 82% 0 in 26 W/m2
07:44 57 °F 51.1 °F 30.1 in ENE 8 mph 13 mph 81% 0 in 28 W/m2
07:49 57.2 °F 51.1 °F 30.1 in ENE 8 mph 13 mph 80.2% 0 in 28 W/m2
07:54 57.4 °F 51.1 °F 30.1 in ENE 7.4 mph 13 mph 79.6% 0 in 25 W/m2
07:59 57.6 °F 51.1 °F 30.1 in ENE 6.6 mph 12 mph 79% 0 in 28 W/m2
08:04 57.7 °F 50.9 °F 30.1 in ENE 6.5 mph 13 mph 78% 0 in 32 W/m2
08:09 57.9 °F 50.9 °F 30.1 in ENE 8.9 mph 16.1 mph 77.6% 0 in 32 W/m2
08:14 58.1 °F 50.9 °F 30.1 in ENE 7.1 mph 16 mph 77% 0 in 28 W/m2
08:19 58.1 °F 50.9 °F 30.1 in ENE 7.3 mph 13 mph 77% 0 in 26 W/m2
08:24 57.9 °F 51.1 °F 30.2 in ENE 6.6 mph 12 mph 77.8% 0 in 25 W/m2
08:29 57.9 °F 51.1 °F 30.2 in NE 7.7 mph 14 mph 78.2% 0 in 25 W/m2
08:34 57.7 °F 51.3 °F 30.2 in ENE 8.3 mph 16 mph 79% 0 in 26 W/m2
08:39 57.6 °F 51.4 °F 30.2 in ENE 8.5 mph 16.1 mph 79.6% 0 in 26 W/m2
08:44 57.4 °F 51.4 °F 30.2 in ENE 9.3 mph 15 mph 80.8% 0 in 28 W/m2
08:49 57 °F 51.6 °F 30.2 in East 6.6 mph 15 mph 81.8% 0 in 35 W/m2
08:54 57 °F 51.6 °F 30.2 in East 6.5 mph 12 mph 82.2% 0 in 46 W/m2
08:59 57 °F 51.6 °F 30.2 in East 6.1 mph 11.5 mph 82% 0 in 62 W/m2
09:04 57 °F 51.8 °F 30.2 in ENE 6.3 mph 12 mph 82.4% 0 in 79 W/m2
09:09 57.2 °F 52 °F 30.2 in ENE 7 mph 12 mph 82.6% 0 in 88 W/m2
09:14 57.4 °F 52.2 °F 30.2 in East 7.1 mph 12 mph 82.6% 0 in 84 W/m2
09:19 57.4 °F 52 °F 30.2 in East 7.3 mph 13 mph 82% 0 in 79 W/m2
09:24 57.4 °F 52 °F 30.2 in ESE 7.8 mph 13 mph 82% 0 in 72 W/m2
09:29 57.2 °F 52 °F 30.2 in East 6.3 mph 11.5 mph 82.4% 0 in 77 W/m2
09:34 57.2 °F 52.2 °F 30.2 in East 4.9 mph 12 mph 83% 0 in 118 W/m2
09:39 57.4 °F 52.3 °F 30.2 in ESE 4.3 mph 9 mph 83.2% 0 in 144 W/m2
09:44 57.9 °F 52.9 °F 30.2 in East 4.5 mph 8.1 mph 83.2% 0 in 141 W/m2
09:49 58.5 °F 53.1 °F 30.2 in East 4.8 mph 11.5 mph 82.1% 0 in 158 W/m2
09:54 59 °F 52.9 °F 30.2 in East 6.3 mph 12 mph 80.2% 0 in 176 W/m2
09:59 59.4 °F 52.5 °F 30.2 in ESE 7.3 mph 11.5 mph 78.1% 0 in 185 W/m2
10:04 59.9 °F 52.5 °F 30.2 in East 6.6 mph 12 mph 76.4% 0 in 304 W/m2
10:09 60.6 °F 52.9 °F 30.2 in East 5.7 mph 12 mph 75.6% 0 in 244 W/m2
10:14 60.8 °F 52.7 °F 30.2 in East 5.7 mph 12 mph 74.6% 0 in 241 W/m2
10:19 61 °F 52.9 °F 30.2 in East 6.1 mph 12 mph 74.4% 0 in 267 W/m2
10:24 61.3 °F 52.5 °F 30.2 in East 7.8 mph 14 mph 72.6% 0 in 302 W/m2
10:29 61.7 °F 53.1 °F 30.2 in East 5.9 mph 14 mph 73.3% 0 in 343 W/m2
10:34 62.1 °F 53.1 °F 30.2 in ENE 7.2 mph 13 mph 72% 0 in 343 W/m2
10:39 62.4 °F 53.2 °F 30.2 in East 7 mph 12 mph 71.7% 0 in 338 W/m2
10:44 62.6 °F 53.1 °F 30.2 in ENE 7.6 mph 12 mph 71.2% 0 in 327 W/m2
10:49 63 °F 53.4 °F 30.2 in East 7.4 mph 16.1 mph 70.9% 0 in 461 W/m2
10:54 63.3 °F 52.9 °F 30.2 in East 10.6 mph 17 mph 68.7% 0 in 596 W/m2
10:59 64 °F 52.7 °F 30.2 in ENE 10.7 mph 16.1 mph 66.7% 0 in 582 W/m2
11:04 64.8 °F 53.6 °F 30.2 in East 7.8 mph 16 mph 66.8% 0 in 561 W/m2
11:09 65.3 °F 52.9 °F 30.2 in ENE 10.1 mph 17.3 mph 64.3% 0 in 606 W/m2
11:14 65.5 °F 52.9 °F 30.2 in ENE 9.2 mph 21 mph 63.7% 0 in 610 W/m2
11:19 65.8 °F 52.7 °F 30.2 in ENE 10.3 mph 21 mph 62.6% 0 in 599 W/m2
11:24 66 °F 52.3 °F 30.2 in ENE 10.8 mph 21 mph 61.2% 0 in 621 W/m2
11:29 66.4 °F 52.5 °F 30.2 in East 8.9 mph 19.6 mph 61.2% 0 in 621 W/m2
11:34 66.2 °F 51.6 °F 30.2 in ENE 13.4 mph 23 mph 59.2% 0 in 656 W/m2
11:39 65.8 °F 51.4 °F 30.2 in ENE 10.3 mph 23 mph 59.6% 0 in 473 W/m2
11:44 66.2 °F 51.4 °F 30.2 in East 11.4 mph 17.3 mph 58.9% 0 in 497 W/m2
11:49 66 °F 51.8 °F 30.2 in East 8.6 mph 17 mph 60.2% 0 in 408 W/m2
11:54 66 °F 51.8 °F 30.2 in East 8.8 mph 16 mph 60.3% 0 in 373 W/m2
11:59 65.5 °F 52.2 °F 30.2 in East 7.8 mph 16 mph 62% 0 in 237 W/m2
12:04 65.3 °F 52.2 °F 30.2 in East 9.3 mph 15 mph 62.5% 0 in 279 W/m2
12:09 65.3 °F 52.2 °F 30.2 in East 6.8 mph 15 mph 62.7% 0 in 269 W/m2
12:14 65.8 °F 52.2 °F 30.2 in East 8.2 mph 15 mph 61.4% 0 in 269 W/m2
12:19 65.7 °F 52 °F 30.2 in East 8.6 mph 15 mph 61% 0 in 338 W/m2
12:24 65.7 °F 51.8 °F 30.2 in East 7.6 mph 14 mph 60.8% 0 in 496 W/m2
12:29 66.4 °F 52.2 °F 30.2 in East 9.2 mph 16 mph 60.5% 0 in 691 W/m2
12:34 67.1 °F 52.3 °F 30.2 in East 9.1 mph 16.1 mph 59.2% 0 in 691 W/m2
12:39 67.6 °F 52.9 °F 30.2 in ESE 8.3 mph 15 mph 59% 0 in 752 W/m2
12:44 68 °F 52.7 °F 30.2 in ESE 8.4 mph 15 mph 58.3% 0 in 752 W/m2
12:49 67.6 °F 52 °F 30.2 in East 10.4 mph 15 mph 57.3% 0 in 738 W/m2
12:54 68.2 °F 52.9 °F 30.2 in East 8.8 mph 15 mph 58% 0 in 719 W/m2
12:59 68.5 °F 52.9 °F 30.2 in ESE 9 mph 16 mph 57.3% 0 in 742 W/m2
13:04 68.5 °F 52.5 °F 30.2 in East 9.4 mph 16.1 mph 56.5% 0 in 759 W/m2
13:09 68.4 °F 51.8 °F 30.2 in ESE 8.5 mph 16.1 mph 55.7% 0 in 803 W/m2
13:14 69.1 °F 52.9 °F 30.2 in ESE 7.1 mph 16 mph 56.2% 0 in 805 W/m2
13:19 69.3 °F 52.2 °F 30.2 in ESE 8.1 mph 14 mph 54.7% 0 in 744 W/m2
13:24 68.9 °F 52 °F 30.2 in ESE 6.3 mph 14 mph 54.8% 0 in 796 W/m2
13:29 69.1 °F 52.2 °F 30.2 in ESE 7.3 mph 16 mph 54.6% 0 in 796 W/m2
13:34 70 °F 52.9 °F 30.2 in ESE 6.3 mph 16 mph 54.8% 0 in 754 W/m2
13:39 70 °F 52.2 °F 30.2 in SE 8.3 mph 12 mph 53.3% 0 in 752 W/m2
13:44 69.6 °F 51.8 °F 30.2 in ESE 7.3 mph 14 mph 53.4% 0 in 724 W/m2
13:49 69.4 °F 51.4 °F 30.2 in SE 6.2 mph 14 mph 52.9% 0 in 715 W/m2
13:54 69.8 °F 52.3 °F 30.2 in SE 5 mph 9.2 mph 53.7% 0 in 715 W/m2
13:59 70.2 °F 52.9 °F 30.2 in SE 5 mph 11.5 mph 54.4% 0 in 735 W/m2
14:04 70.3 °F 52.3 °F 30.2 in SE 7.9 mph 14 mph 52.8% 0 in 761 W/m2
14:09 69.8 °F 51.6 °F 30.2 in ESE 8.7 mph 14 mph 52.5% 0 in 761 W/m2
14:14 69.1 °F 50.9 °F 30.2 in ESE 10 mph 15 mph 52.3% 0 in 824 W/m2
14:19 69.8 °F 51.4 °F 30.2 in ESE 9.9 mph 21 mph 52% 0 in 865 W/m2
14:24 69.8 °F 50.5 °F 30.2 in ESE 9.6 mph 21 mph 50.2% 0 in 809 W/m2
14:29 68.9 °F 49.6 °F 30.2 in ESE 8.8 mph 16 mph 50.2% 0 in 236 W/m2
14:34 68.2 °F 49.8 °F 30.2 in ESE 7.7 mph 14 mph 51.7% 0 in 204 W/m2
14:39 68.5 °F 50.9 °F 30.2 in East 8.3 mph 14 mph 53.3% 0 in 418 W/m2
14:44 69.4 °F 50.9 °F 30.2 in East 10.3 mph 16.1 mph 51.7% 0 in 710 W/m2
14:49 70 °F 50.2 °F 30.2 in ESE 8.5 mph 17.3 mph 49.7% 0 in 696 W/m2
14:54 69.6 °F 49.5 °F 30.2 in ESE 7.3 mph 17 mph 48.6% 0 in 694 W/m2
14:59 70 °F 49.1 °F 30.2 in East 8.7 mph 16.1 mph 47.6% 0 in 645 W/m2
15:04 70.2 °F 49.6 °F 30.1 in East 8 mph 16.1 mph 48% 0 in 636 W/m2
15:09 70.3 °F 48.9 °F 30.1 in East 8.9 mph 15 mph 46.8% 0 in 631 W/m2
15:14 70.2 °F 48.2 °F 30.1 in East 9.1 mph 16 mph 45.8% 0 in 631 W/m2
15:19 70.2 °F 48 °F 30.1 in East 8.8 mph 16.1 mph 45.3% 0 in 612 W/m2
15:24 70.3 °F 48 °F 30.1 in ESE 7 mph 13 mph 45.2% 0 in 601 W/m2
15:29 70.3 °F 48 °F 30.1 in SE 6.2 mph 15 mph 45.3% 0 in 605 W/m2
15:34 70.5 °F 48.6 °F 30.1 in ESE 6 mph 15 mph 45.7% 0 in 598 W/m2
15:39 70.7 °F 48 °F 30.1 in ESE 6.4 mph 15 mph 44.3% 0 in 598 W/m2
15:44 70.7 °F 48.6 °F 30.1 in ESE 5.5 mph 12 mph 45.5% 0 in 589 W/m2
15:49 70.7 °F 48.6 °F 30.1 in East 7.9 mph 17.3 mph 45.6% 0 in 566 W/m2
15:54 70.5 °F 48.4 °F 30.1 in ESE 7.9 mph 17 mph 45.4% 0 in 547 W/m2
15:59 70.7 °F 48.2 °F 30.1 in ESE 8.1 mph 16 mph 44.9% 0 in 536 W/m2
16:04 70.3 °F 47.8 °F 30.1 in East 8 mph 16.1 mph 44.8% 0 in 524 W/m2
16:09 70.2 °F 47.7 °F 30.1 in East 6.2 mph 16 mph 44.9% 0 in 520 W/m2
16:14 69.3 °F 47.1 °F 30.1 in East 4.5 mph 15 mph 45.1% 0 in 88 W/m2
16:19 69.8 °F 48 °F 30.1 in East 6 mph 9.2 mph 45.9% 0 in 490 W/m2
16:24 70 °F 47.7 °F 30.1 in ESE 6.5 mph 14 mph 45% 0 in 478 W/m2
16:29 70.5 °F 48.4 °F 30.1 in East 5.2 mph 14 mph 45.6% 0 in 457 W/m2
16:34 70.5 °F 48 °F 30.1 in East 4.9 mph 8.1 mph 44.8% 0 in 452 W/m2
16:39 70.5 °F 47.8 °F 30.1 in East 5.8 mph 10.4 mph 44.5% 0 in 448 W/m2
16:44 69.6 °F 46.9 °F 30.1 in East 6.9 mph 10 mph 44.4% 0 in 431 W/m2
16:49 69.8 °F 47.5 °F 30.1 in East 5.7 mph 10.4 mph 45.1% 0 in 422 W/m2
16:54 69.8 °F 47.8 °F 30.1 in East 6 mph 10.4 mph 45.5% 0 in 388 W/m2
16:56 69.6 °F 47.3 °F 30.1 in SE 6.4 mph 10 mph 45.1% 0 in 278 W/m2
18:59 63.9 °F 47.3 °F 30.1 in ESE 3.4 mph 4.6 mph 55% 0 in 9 W/m2
19:04 63.7 °F 47.1 °F 30.1 in ESE 3.7 mph 7 mph 54.9% 0 in 9 W/m2
19:09 63.3 °F 47.1 °F 30.1 in ESE 3 mph 7 mph 55.8% 0 in 5 W/m2
19:14 62.8 °F 47.1 °F 30.1 in ESE 2.1 mph 5 mph 56.2% 0 in 5 W/m2
19:19 62.6 °F 47.3 °F 30.1 in ESE 1.2 mph 3 mph 57.2% 0 in 0 W/m2
19:24 62.2 °F 47.3 °F 30.1 in East 2 mph 3.5 mph 58% 0 in 0 W/m2
19:29 61.9 °F 47.3 °F 30.1 in ESE 2.4 mph 4 mph 58.9% 0 in 0 W/m2
19:34 61.5 °F 47.7 °F 30.1 in ESE 2.4 mph 4 mph 60.3% 0 in 0 W/m2
19:39 61.2 °F 47.5 °F 30.2 in East 2.2 mph 3.5 mph 60.6% 0 in 0 W/m2
19:44 61 °F 47.5 °F 30.2 in East 2.5 mph 5 mph 61% 0 in 0 W/m2
19:49 61 °F 46.9 °F 30.2 in ESE 3 mph 5 mph 60.3% 0 in 0 W/m2
19:54 60.6 °F 47.1 °F 30.2 in ESE 2.5 mph 4.6 mph 60.8% 0 in 0 W/m2
19:59 60.4 °F 46.9 °F 30.2 in ESE 2.8 mph 5 mph 61.4% 0 in 0 W/m2
20:04 60.3 °F 46.9 °F 30.2 in East 2.9 mph 5 mph 61.5% 0 in 0 W/m2
20:09 60.1 °F 46.8 °F 30.2 in ESE 2.2 mph 5 mph 61.2% 0 in 0 W/m2
20:14 60.1 °F 46.8 °F 30.2 in East 2 mph 5 mph 61.7% 0 in 0 W/m2
20:19 59.9 °F 46.6 °F 30.2 in ENE 2.4 mph 4 mph 61.3% 0 in 0 W/m2
20:24 59.9 °F 46.2 °F 30.2 in ENE 2.5 mph 5 mph 60.4% 0 in 0 W/m2
20:29 59.7 °F 46.6 °F 30.2 in East 2.2 mph 5 mph 61.7% 0 in 0 W/m2
20:34 59.4 °F 46.9 °F 30.2 in East 1.1 mph 3.5 mph 63.6% 0 in 0 W/m2
20:39 59.4 °F 46.8 °F 30.2 in East 2.4 mph 5 mph 63% 0 in 0 W/m2
20:44 59.4 °F 46.8 °F 30.2 in East 2.7 mph 5 mph 63% 0 in 0 W/m2
20:49 59 °F 46.4 °F 30.2 in ENE 2.4 mph 5 mph 63.2% 0 in 0 W/m2
20:54 58.6 °F 46.4 °F 30.2 in East 2.3 mph 4 mph 64% 0 in 0 W/m2
20:59 58.5 °F 46.8 °F 30.2 in East 0.8 mph 3.5 mph 65.1% 0 in 0 W/m2
21:04 58.1 °F 46.6 °F 30.2 in East 1.4 mph 5 mph 65.7% 0 in 0 W/m2
21:09 58.1 °F 46.6 °F 30.2 in East 2.5 mph 5 mph 65.4% 0 in 0 W/m2
21:14 58.5 °F 46.8 °F 30.2 in East 1.7 mph 5 mph 64.9% 0 in 0 W/m2
21:19 58.1 °F 46.9 °F 30.2 in East 1.6 mph 3.5 mph 66.4% 0 in 0 W/m2
21:24 57.9 °F 46.6 °F 30.2 in ENE 2.6 mph 3.5 mph 65.7% 0 in 0 W/m2
21:29 57.7 °F 46.8 °F 30.2 in ENE 2 mph 3.5 mph 66.6% 0 in 0 W/m2
21:34 57.7 °F 46.6 °F 30.2 in East 2 mph 5 mph 66.3% 0 in 0 W/m2
21:39 57.7 °F 46.6 °F 30.2 in East 2.3 mph 5 mph 66.2% 0 in 0 W/m2
21:44 57.7 °F 46.6 °F 30.2 in East 2.4 mph 5 mph 66.2% 0 in 0 W/m2
21:49 57.6 °F 46.4 °F 30.2 in East 1.7 mph 5 mph 66.3% 0 in 0 W/m2
21:54 57.4 °F 46.8 °F 30.2 in East 1.5 mph 3.5 mph 67.8% 0 in 0 W/m2
21:59 57.2 °F 46.6 °F 30.2 in East 1.3 mph 3.5 mph 68% 0 in 0 W/m2
22:04 57 °F 46.9 °F 30.2 in East 1.2 mph 3.5 mph 68.9% 0 in 0 W/m2
22:09 57 °F 46.8 °F 30.2 in ESE 1.7 mph 3.5 mph 68.6% 0 in 0 W/m2
22:14 56.8 °F 46.8 °F 30.2 in ESE 2.2 mph 3.5 mph 68.8% 0 in 0 W/m2
22:19 56.8 °F 46.6 °F 30.2 in East 2.2 mph 5 mph 68.8% 0 in 0 W/m2
22:24 57 °F 46.6 °F 30.2 in East 2.2 mph 5 mph 68% 0 in 0 W/m2
22:29 57.2 °F 46.2 °F 30.2 in ENE 2.1 mph 5 mph 67.2% 0 in 0 W/m2
22:34 56.7 °F 46.4 °F 30.2 in ENE 1.9 mph 3.5 mph 68.4% 0 in 0 W/m2
22:39 56.1 °F 46.4 °F 30.2 in NE 2.4 mph 3.5 mph 69.6% 0 in 0 W/m2
22:44 55.9 °F 46.4 °F 30.2 in ENE 2.4 mph 3.5 mph 70% 0 in 0 W/m2
22:49 55.9 °F 46.4 °F 30.2 in ENE 1.7 mph 3.5 mph 70% 0 in 0 W/m2
22:54 55.6 °F 46.2 °F 30.2 in ENE 1.9 mph 3.5 mph 70.8% 0 in 0 W/m2
22:59 55.4 °F 46.4 °F 30.2 in ENE 1.6 mph 3.5 mph 71.4% 0 in 0 W/m2
23:04 55.4 °F 46.2 °F 30.2 in ENE 1.1 mph 3 mph 71.5% 0 in 0 W/m2
23:09 55.4 °F 46.2 °F 30.2 in NE 2.4 mph 4 mph 71% 0 in 0 W/m2
23:14 55.2 °F 46.4 °F 30.2 in NE 2.9 mph 4 mph 72.1% 0 in 0 W/m2
23:19 54.9 °F 46.6 °F 30.2 in NE 3 mph 4 mph 73.7% 0 in 0 W/m2
23:24 54.5 °F 46.4 °F 30.2 in NE 2.2 mph 4 mph 74% 0 in 0 W/m2
23:29 54.5 °F 46.4 °F 30.2 in NNE 2.1 mph 3.5 mph 74.1% 0 in 0 W/m2
23:34 54.3 °F 46.4 °F 30.2 in NNE 2.2 mph 3.5 mph 75% 0 in 0 W/m2
23:39 54.1 °F 46.4 °F 30.2 in NNE 1.8 mph 3.5 mph 75% 0 in 0 W/m2
23:44 54.3 °F 46.2 °F 30.2 in NNE 1.7 mph 3.5 mph 74.3% 0 in 0 W/m2
23:49 54.1 °F 46 °F 30.2 in NNE 2.1 mph 4 mph 74% 0 in 0 W/m2
23:54 54.3 °F 46.2 °F 30.2 in NNE 1.5 mph 4 mph 74.4% 0 in 0 W/m2
23:59 54.1 °F 46.2 °F 30.2 in NNE 1.8 mph 3.5 mph 74.3% 0 in 0 W/m2
Stazione Meteorologica MeteoMincio Rivalta s/M (MN)
Con i complimenti di Weather Underground - 2 mb


GLOSSARIO METEOROLOGICO
Umidità Assoluta
Quantità di vapore acqueo contenuta in 1 metro cubo di aria. Viene espressa in grammi per m³.

Do NOT follow this link or you will be banned from the site!